Time;durP1;ratioP1;P1;durP2;ratioP2;P2;SDS_P1;SDS_P2;PMS_P1;PMS_P2;Temp;Humidity;BMP_temperature;BMP_pressure;BME280_temperature;BME280_humidity;BME280_pressure;Samples;Min_cycle;Max_cycle;Signal;HPM_P1;HPM_P2
2022/09/20 00:00:14;;;;;;;9.30;1.93;;;;;;;13.28;100.00;101217.88;8328561;28;20041;-50
2022/09/20 00:04:14;;;;;;;16.55;2.63;;;;;;;13.25;100.00;101211.88;8330348;28;20367;-48
2022/09/20 00:08:15;;;;;;;15.93;2.50;;;;;;;13.26;100.00;101219.00;8329148;28;20405;-52
2022/09/20 00:12:16;;;;;;;14.10;2.38;;;;;;;13.24;100.00;101213.72;8324263;28;20288;-52
2022/09/20 00:16:21;;;;;;;9.40;2.30;;;;;;;13.23;100.00;101219.28;8325655;28;20144;-53
2022/09/20 00:20:22;;;;;;;15.52;2.58;;;;;;;13.19;100.00;101218.72;8327066;28;20279;-51
2022/09/20 00:24:24;;;;;;;6.43;2.60;;;;;;;13.19;100.00;101212.44;8328881;28;20051;-52
2022/09/20 00:28:25;;;;;;;9.77;3.17;;;;;;;13.19;100.00;101212.44;8328604;28;20120;-52
2022/09/20 00:32:25;;;;;;;9.57;2.80;;;;;;;13.20;100.00;101214.13;8329094;28;20038;-52
2022/09/20 00:36:26;;;;;;;11.95;3.92;;;;;;;13.22;100.00;101213.03;8328520;28;20037;-53
2022/09/20 00:40:26;;;;;;;10.90;3.88;;;;;;;13.24;100.00;101204.72;8328222;28;20072;-52
2022/09/20 00:45:00;;;;;;;12.63;3.20;;;;;;;13.25;100.00;101201.00;8328444;28;20045;-51
2022/09/20 00:49:12;;;;;;;13.40;4.20;;;;;;;13.23;100.00;101197.56;8327319;28;20407;-54
2022/09/20 00:53:21;;;;;;;8.18;4.25;;;;;;;13.26;100.00;101202.72;8328027;28;20044;-53
2022/09/20 00:57:22;;;;;;;9.25;4.40;;;;;;;13.23;100.00;101203.00;8326686;28;20151;-50
2022/09/20 01:01:23;;;;;;;12.63;4.15;;;;;;;13.22;100.00;101204.00;8327693;28;20044;-52
2022/09/20 01:05:24;;;;;;;15.40;3.92;;;;;;;13.15;100.00;101197.44;8327969;28;20164;-52
2022/09/20 01:09:25;;;;;;;10.15;3.50;;;;;;;13.14;100.00;101209.25;8326903;28;20096;-53
2022/09/20 01:13:25;;;;;;;12.57;3.13;;;;;;;13.11;100.00;101210.41;8326981;28;20109;-50
2022/09/20 01:17:29;;;;;;;8.20;2.70;;;;;;;13.15;100.00;101205.56;8327147;28;20487;-50
2022/09/20 01:21:30;;;;;;;10.43;2.97;;;;;;;13.19;100.00;101207.88;8326238;28;20041;-51
2022/09/20 01:26:10;;;;;;;8.40;3.20;;;;;;;13.25;100.00;101201.00;8325282;28;20037;-50
2022/09/20 01:30:18;;;;;;;13.20;3.55;;;;;;;13.23;100.00;101205.72;8325349;28;20099;-52
2022/09/20 01:34:27;;;;;;;10.73;3.00;;;;;;;13.22;100.00;101202.16;8326448;28;20170;-53
2022/09/20 01:38:53;;;;;;;13.63;2.78;;;;;;;13.20;100.00;101209.56;8326348;28;21260;-50
2022/09/20 01:43:05;;;;;;;11.02;3.45;;;;;;;13.20;100.00;101206.00;8326509;28;20470;-52
2022/09/20 01:47:31;;;;;;;12.13;3.15;;;;;;;13.17;100.00;101214.41;8325349;28;20049;-52
2022/09/20 01:56:27;;;;;;;10.15;2.58;;;;;;;13.17;100.00;101215.28;8359611;27;20392;-52
2022/09/20 02:00:33;;;;;;;13.98;2.38;;;;;;;13.15;100.00;101211.00;8334050;28;20044;-50
2022/09/20 02:05:13;;;;;;;14.70;3.38;;;;;;;13.16;100.00;101212.72;8322864;28;20057;-52
2022/09/20 02:09:55;;;;;;;16.77;2.58;;;;;;;13.16;100.00;101207.28;8321035;28;20046;-48
2022/09/20 02:19:02;;;;;;;9.52;2.20;;;;;;;13.01;100.00;101216.81;8339077;27;20374;-49
2022/09/20 02:23:21;;;;;;;6.95;2.33;;;;;;;12.93;100.00;101211.22;8353361;28;20052;-48
2022/09/20 02:27:34;;;;;;;9.40;2.13;;;;;;;12.94;100.00;101223.78;8348046;28;20069;-48
2022/09/20 02:31:50;;;;;;;9.75;2.20;;;;;;;12.88;100.00;101208.91;8304929;28;20495;-53
2022/09/20 02:36:04;;;;;;;7.57;2.05;;;;;;;12.90;100.00;101208.78;8318324;28;20088;-52
2022/09/20 02:40:16;;;;;;;;;;;;;;;12.90;100.00;101198.75;8318504;28;20490;-47
2022/09/20 02:44:45;;;;;;;8.75;1.70;;;;;;;12.84;100.00;101190.31;8320690;28;19920;-48
2022/09/20 02:49:09;;;;;;;6.38;1.77;;;;;;;12.76;100.00;101179.28;8311890;28;20112;-50
2022/09/20 02:53:44;;;;;;;11.75;2.05;;;;;;;12.68;100.00;101179.13;8319297;28;20483;-47
2022/09/20 02:58:23;;;;;;;8.68;2.17;;;;;;;12.63;100.00;101178.69;8318138;28;20029;-47
2022/09/20 03:02:35;;;;;;;11.38;2.15;;;;;;;12.63;100.00;101187.66;8319630;28;20516;-46
2022/09/20 03:06:52;;;;;;;10.25;2.17;;;;;;;12.60;100.00;101187.94;8351265;28;20410;-47
2022/09/20 03:11:32;;;;;;;12.88;2.28;;;;;;;12.61;100.00;101188.81;8350997;28;20128;-47
2022/09/20 03:15:52;;;;;;;7.43;2.90;;;;;;;12.59;100.00;101191.66;8350610;28;20467;-47
2022/09/20 03:24:39;;;;;;;10.27;2.00;;;;;;;12.68;100.00;101190.84;8331125;27;20400;-47
2022/09/20 03:29:12;;;;;;;15.43;2.80;;;;;;;12.68;100.00;101190.84;8320418;28;20121;-46
2022/09/20 03:33:25;;;;;;;13.27;2.10;;;;;;;12.71;100.00;101195.13;8316555;28;20033;-47
2022/09/20 03:37:52;;;;;;;15.95;1.98;;;;;;;12.75;100.00;101183.00;8319561;28;20045;-47
2022/09/20 03:46:20;;;;;;;9.55;2.00;;;;;;;12.80;100.00;101191.56;8332882;27;20394;-46
2022/09/20 03:50:45;;;;;;;11.35;1.70;;;;;;;12.78;100.00;101193.59;8351125;28;20049;-47
2022/09/20 04:00:04;;;;;;;8.38;1.90;;;;;;;12.67;100.00;101190.97;8330811;27;20359;-47
2022/09/20 04:04:34;;;;;;;8.43;2.10;;;;;;;12.68;100.00;101196.25;8318564;28;20041;-48
2022/09/20 04:09:07;;;;;;;11.15;1.88;;;;;;;12.67;100.00;101205.41;8314763;28;20033;-46
2022/09/20 04:13:36;;;;;;;11.07;2.45;;;;;;;12.56;100.00;101210.06;8308588;28;20052;-46
2022/09/20 04:17:58;;;;;;;10.77;1.80;;;;;;;12.54;100.00;101209.34;8314589;28;20061;-47
2022/09/20 04:22:00;;;;;;;17.75;2.17;;;;;;;12.52;100.00;101200.47;8314760;28;20518;-46
2022/09/20 04:26:02;;;;;;;11.10;2.38;;;;;;;12.47;100.00;101203.59;8297465;28;20121;-46
2022/09/20 04:30:18;;;;;;;11.48;2.80;;;;;;;12.55;100.00;101200.19;8301586;28;20495;-47
2022/09/20 04:36:27;;;;;;;12.07;2.63;;;;;;;12.65;100.00;101201.09;8313215;28;20506;-46
2022/09/20 04:38:53;;;;;;;15.98;2.83;;;;;;;12.54;100.00;101206.63;8314652;28;20033;-46
2022/09/20 04:43:31;;;;;;;10.30;3.28;;;;;;;12.50;100.00;101214.16;8314880;28;20464;-47
2022/09/20 04:48:12;;;;;;;8.82;3.03;;;;;;;12.49;100.00;101217.03;8311566;28;20038;-47
2022/09/20 04:52:52;;;;;;;15.70;3.70;;;;;;;12.44;100.00;101220.13;8313231;28;20037;-49
2022/09/20 04:57:33;;;;;;;17.70;4.43;;;;;;;12.36;100.00;101221.81;8312286;28;20108;-49
2022/09/20 05:02:07;;;;;;;17.20;7.63;;;;;;;12.27;100.00;101230.75;8309393;28;20108;-47
2022/09/20 05:10:48;;;;;;;;;;;;;;;12.27;100.00;101228.03;8323303;27;19959;-47
2022/09/20 05:15:08;;;;;;;;;;;;;;;12.29;100.00;101226.06;8350613;28;20377;-47
2022/09/20 05:19:29;;;;;;;;;;;;;;;12.33;100.00;101230.22;8306469;28;19930;-49
2022/09/20 05:23:36;;;;;;;;;;;;;;;12.35;100.00;101233.66;8313964;28;20016;-46
2022/09/20 05:27:55;;;;;;;;;;;;;;;12.31;100.00;101252.03;8323440;28;20067;-48
2022/09/20 05:32:07;;;;;;;;;;;;;;;12.41;100.00;101257.53;8333246;28;19934;-48
2022/09/20 05:36:12;;;;;;;;;;;;;;;12.34;100.00;101250.91;8307758;28;19937;-46
2022/09/20 05:40:22;;;;;;;;;;;;;;;12.33;100.00;101260.03;8345552;28;19971;-46
2022/09/20 05:48:50;;;;;;;;;;;;;;;12.54;100.00;101263.59;8334848;27;19987;-48
2022/09/20 05:52:58;;;;;;;;;;;;;;;12.52;100.00;101262.84;8298761;28;19936;-47
2022/09/20 05:57:18;;;;;;;;;;;;;;;12.44;100.00;101268.94;8285110;28;20305;-46
2022/09/20 06:01:22;;;;;;;;;;;;;;;12.40;100.00;101263.94;8287560;28;20285;-47
2022/09/20 06:05:36;;;;;;;;;;;;;;;12.41;100.00;101265.66;8311450;28;19929;-47
2022/09/20 06:09:56;;;;;;;;;;;;;;;12.49;100.00;101272.13;8308850;28;19921;-47
2022/09/20 06:14:02;;;;;;;;;;;;;;;12.51;100.00;101270.16;8295888;28;19941;-48
2022/09/20 06:18:21;;;;;;;;;;;;;;;12.51;100.00;101277.44;8287687;28;19921;-46
2022/09/20 06:22:31;;;;;;;;;;;;;;;12.42;100.00;101280.94;8308869;28;20564;-46
2022/09/20 06:26:34;;;;;;;;;;;;;;;12.41;100.00;101280.06;8288939;28;19922;-46
2022/09/20 06:30:38;;;;;;;;;;;;;;;12.40;100.00;101282.91;8291825;28;19968;-46
2022/09/20 06:34:38;;;;;;;;;;;;;;;12.64;100.00;101286.19;8282340;28;19929;-46
2022/09/20 06:43:04;;;;;;;;;;;;;;;13.33;100.00;101286.19;8308738;28;19928;-47
2022/09/20 06:47:07;;;;;;;;;;;;;;;13.62;100.00;101280.81;8315146;28;20016;-46
2022/09/20 06:51:08;;;;;;;;;;;;;;;14.03;100.00;101283.25;8344230;28;20419;-46
2022/09/20 06:55:11;;;;;;;;;;;;;;;14.36;100.00;101285.53;8344185;28;20234;-46
2022/09/20 06:59:14;;;;;;;;;;;;;;;14.63;100.00;101284.75;8316772;28;19928;-47
2022/09/20 07:03:14;;;;;;;;;;;;;;;14.80;100.00;101293.03;8303238;28;20237;-46
2022/09/20 07:07:16;;;;;;;;;;;;;;;14.75;100.00;101289.88;8305143;28;19929;-47
2022/09/20 07:11:17;;;;;;;;;;;;;;;14.66;100.00;101295.34;8304774;28;19967;-47
2022/09/20 07:15:21;;;;;;;;;;;;;;;14.45;100.00;101303.72;8297816;28;20389;-46
2022/09/20 07:19:22;;;;;;;;;;;;;;;14.57;100.00;101293.50;8313745;28;19933;-46
2022/09/20 07:23:22;;;;;;;;;;;;;;;14.92;100.00;101297.28;8305201;28;19972;-47
2022/09/20 07:27:23;;;;;;;;;;;;;;;15.37;100.00;101297.38;8301087;28;19948;-47
2022/09/20 07:31:24;;;;;;;;;;;;;;;15.59;95.58;101295.06;8303400;28;20404;-47
2022/09/20 07:35:24;;;;;;;;;;;;;;;14.85;95.69;101296.16;8297083;28;19926;-46
2022/09/20 07:39:25;;;;;;;;;;;;;;;14.79;96.77;101304.91;8296899;28;19925;-47
2022/09/20 07:43:26;;;;;;;;;;;;;;;15.03;99.69;101296.22;8302980;28;20012;-48
2022/09/20 07:47:28;;;;;;;;;;;;;;;15.47;97.79;101304.47;8311583;28;19936;-47
2022/09/20 07:51:28;;;;;;;;;;;;;;;15.54;93.58;101310.16;8322578;28;19970;-46
2022/09/20 07:55:29;;;;;;;;;;;;;;;15.56;94.02;101314.44;8322912;28;19925;-48
2022/09/20 07:59:30;;;;;;;;;;;;;;;15.96;94.30;101313.16;8319292;28;19927;-46
2022/09/20 08:03:31;;;;;;;;;;;;;;;16.10;92.39;101324.38;8297872;28;20416;-47
2022/09/20 08:07:32;;;;;;;;;;;;;;;16.06;91.42;101324.84;8297681;28;19969;-47
2022/09/20 08:11:34;;;;;;;;;;;;;;;16.38;90.89;101327.88;8295790;28;19921;-46
2022/09/20 08:15:34;;;;;;;;;;;;;;;16.59;87.90;101326.53;8285937;28;19918;-46
2022/09/20 08:19:35;;;;;;;;;;;;;;;16.36;88.38;101336.22;8308668;28;20019;-47
2022/09/20 08:23:35;;;;;;;;;;;;;;;16.20;84.97;101335.22;8289469;28;19987;-47
2022/09/20 08:27:36;;;;;;;;;;;;;;;16.47;84.92;101337.88;8299189;28;19925;-46
2022/09/20 08:31:38;;;;;;;;;;;;;;;16.76;86.32;101338.44;8312274;28;20115;-46
2022/09/20 08:35:39;;;;;;;;;;;;;;;16.92;83.41;101338.53;8302072;28;19925;-46
2022/09/20 08:39:39;;;;;;;;;;;;;;;16.96;82.29;101345.41;8307353;28;19929;-47
2022/09/20 08:43:43;;;;;;;;;;;;;;;17.05;82.76;101337.09;8320312;28;19956;-47
2022/09/20 08:47:47;;;;;;;;;;;;;;;16.98;79.58;101343.34;8313544;28;19991;-46
2022/09/20 08:51:49;;;;;;;;;;;;;;;16.69;80.10;101346.44;8320406;28;20304;-47
2022/09/20 08:55:49;;;;;;;;;;;;;;;17.54;80.70;101344.53;8319132;28;19927;-48
2022/09/20 08:59:50;;;;;;;;;;;;;;;17.55;78.03;101337.19;8306393;28;19921;-47
2022/09/20 09:03:51;;;;;;;;;;;;;;;17.90;81.04;101339.66;8298566;28;19921;-47
2022/09/20 09:07:51;;;;;;;;;;;;;;;18.19;75.16;101341.94;8295653;28;19929;-46
2022/09/20 09:11:53;;;;;;;;;;;;;;;18.33;75.31;101333.91;8304011;28;19928;-46
2022/09/20 09:15:56;;;;;;;;;;;;;;;17.56;75.90;101334.28;8288228;28;20370;-46
2022/09/20 09:19:58;;;;;;;;;;;;;;;18.08;75.31;101332.19;8315118;28;19995;-47
2022/09/20 09:24:12;;;;;;;;;;;;;;;20.67;69.74;101327.28;8306702;28;20704;-47
2022/09/20 09:28:13;;;;;;;;;;;;;;;21.18;64.32;101329.19;8299499;28;20321;-46
2022/09/20 09:32:18;;;;;;;;;;;;;;;22.08;60.72;101332.50;8317154;28;20065;-46
2022/09/20 09:36:23;;;;;;;;;;;;;;;21.17;63.79;101343.13;8319036;28;19921;-48
2022/09/20 09:40:24;;;;;;;;;;;;;;;22.23;64.19;101339.66;8301256;28;19925;-47
2022/09/20 09:44:26;;;;;;;;;;;;;;;22.48;55.94;101331.84;8294651;28;20380;-47
2022/09/20 09:48:29;;;;;;;;;;;;;;;19.85;60.66;101337.34;8304053;28;20548;-47
2022/09/20 09:52:32;;;;;;;;;;;;;;;18.90;67.83;101332.00;8334733;28;19932;-46
2022/09/20 09:56:56;;;;;;;;;;;;;;;18.89;70.07;101330.31;8319777;28;19921;-46
2022/09/20 10:00:58;;;;;;;;;;;;;;;17.70;71.66;101330.06;8296560;28;20650;-47
2022/09/20 10:05:04;;;;;;;;;;;;;;;17.50;70.63;101325.88;8303813;28;19925;-46
2022/09/20 10:13:39;;;;;;;;;;;;;;;17.33;71.41;101326.81;8292002;28;19926;-47
2022/09/20 10:17:49;;;;;;;;;;;;;;;17.19;72.83;101314.63;8281517;28;19925;-47
2022/09/20 10:22:00;;;;;;;;;;;;;;;17.13;70.65;101323.47;8271742;28;19921;-48
2022/09/20 10:26:21;;;;;;;;;;;;;;;16.71;70.07;101318.97;8279108;28;20016;-47
2022/09/20 10:30:22;;;;;;;;;;;;;;;16.68;71.83;101322.00;8272062;28;20222;-49
2022/09/20 10:34:43;;;;;;;;;;;;;;;16.56;72.51;101326.84;8282642;28;20297;-50
2022/09/20 10:39:03;;;;;;;;;;;;;;;16.48;72.37;101325.94;8278123;28;20279;-47
2022/09/20 10:43:14;;;;;;;;;;;;;;;16.49;76.85;101330.38;8281910;28;20414;-49
2022/09/20 10:47:20;;;;;;;;;;;;;;;16.34;78.89;101321.00;8270997;28;19973;-47
2022/09/20 10:51:42;;;;;;;;;;;;;;;16.32;78.60;101320.34;8280771;28;19933;-47
2022/09/20 10:55:50;;;;;;;;;;;;;;;16.21;79.63;101323.28;8275578;28;19918;-47
2022/09/20 11:00:01;;;;;;;;;;;;;;;16.25;78.98;101322.81;8280295;28;19921;-46
2022/09/20 11:04:19;;;;;;;;;;;;;;;16.34;76.89;101326.47;8276046;28;20371;-47
2022/09/20 11:08:24;;;;;;;;;;;;;;;16.20;74.80;101341.56;8280316;28;20409;-48
2022/09/20 11:12:28;;;;;;;;;;;;;;;16.20;77.07;101336.09;8300175;28;19940;-47
2022/09/20 11:16:40;;;;;;;;;;;;;;;16.20;78.45;101337.97;8308303;28;19928;-47
2022/09/20 11:20:43;;;;;;;;;;;;;;;16.22;78.84;101341.41;8313414;28;19923;-47
2022/09/20 11:24:49;;;;;;;;;;;;;;;16.19;78.81;101338.97;8291417;28;19918;-50
2022/09/20 11:28:54;;;;;;;;;;;;;;;16.21;79.30;101342.38;8291228;28;19937;-47
2022/09/20 11:32:59;;;;;;;;;;;;;;;15.88;78.33;101356.72;8290682;28;19940;-48
2022/09/20 11:37:02;;;;;;;;;;;;;;;15.34;85.51;101361.16;8291161;28;19931;-48
2022/09/20 11:41:12;;;;;;;;;;;;;;;14.83;91.05;101358.06;8290878;28;20130;-47
2022/09/20 11:45:12;;;;;;;;;;;;;;;14.55;95.23;101375.28;8290015;28;19925;-48
2022/09/20 11:49:16;;;;;;;;;;;;;;;14.23;100.00;101368.41;8290554;28;19953;-46
2022/09/20 11:57:40;;;;;;;;;;;;;;;13.99;100.00;101384.31;8333614;27;19925;-47
2022/09/20 12:01:41;;;;;;;;;;;;;;;14.12;100.00;101377.56;8287287;28;20479;-48
2022/09/20 12:05:42;;;;;;;;;;;;;;;14.12;100.00;101372.13;8283066;28;19965;-48
2022/09/20 12:09:44;;;;;;;;;;;;;;;14.21;100.00;101374.00;8282012;28;19918;-47
2022/09/20 12:13:52;;;;;;;;;;;;;;;14.34;100.00;101371.91;8283115;28;19918;-47
2022/09/20 12:30:33;;;;;;;;;;;;;;;14.60;99.51;101378.44;8322571;27;19921;-47
2022/09/20 12:34:34;;;;;;;;;;;;;;;14.66;95.85;101377.00;8314956;28;20043;-47
2022/09/20 12:38:36;;;;;;;;;;;;;;;14.80;97.47;101380.16;8315008;28;20352;-49
2022/09/20 12:42:36;;;;;;;;;;;;;;;14.94;97.53;101374.22;8316043;28;19924;-49
2022/09/20 12:46:40;;;;;;;;;;;;;;;14.84;95.64;101387.00;8314133;28;19924;-47
2022/09/20 12:55:01;;;;;;;;;;;;;;;14.99;90.83;101380.09;8315103;28;19964;-48
2022/09/20 12:59:06;;;;;;;;;;;;;;;15.09;89.26;101380.03;8314441;28;19921;-47
2022/09/20 13:07:46;;;;;;;;;;;;;;;15.32;93.08;101382.28;8324141;27;19925;-48
2022/09/20 13:11:51;;;;;;;;;;;;;;;15.39;89.98;101390.72;8314373;28;19928;-47
2022/09/20 13:15:52;;;;;;;;;;;;;;;15.12;93.31;101391.50;8314968;28;19925;-47
2022/09/20 13:19:54;;;;;;;;;;;;;;;14.99;97.61;101384.66;8314854;28;19963;-47
2022/09/20 13:23:55;;;;;;;;;;;;;;;14.69;99.17;101383.03;8315190;28;20103;-46
2022/09/20 13:28:15;;;;;;;;;;;;;;;14.52;100.00;101385.63;8314455;28;19922;-50
2022/09/20 13:32:31;;;;;;;;;;;;;;;14.54;100.00;101372.72;8326745;28;20582;-49
2022/09/20 13:36:31;;;;;;;;;;;;;;;14.52;100.00;101372.03;8314295;28;19917;-48
2022/09/20 13:40:32;;;;;;;;;;;;;;;14.65;100.00;101372.56;8315505;28;19917;-47
2022/09/20 13:44:34;;;;;;;;;;;;;;;14.72;100.00;101365.53;8314819;28;19928;-47
2022/09/20 13:48:34;;;;;;;;;;;;;;;14.75;99.59;101370.69;8288564;28;19921;-48
2022/09/20 13:52:43;;;;;;;;;;;;;;;15.02;99.08;101370.75;8314031;28;19918;-47
2022/09/20 13:56:44;;;;;;;;;;;;;;;15.33;95.31;101367.63;8307484;28;19968;-49
2022/09/20 14:00:48;;;;;;;;;;;;;;;15.61;92.15;101361.19;8308530;28;19921;-47
2022/09/20 14:04:50;;;;;;;;;;;;;;;15.70;89.01;101360.28;8322569;28;19935;-47
2022/09/20 14:08:50;;;;;;;;;;;;;;;15.90;90.44;101354.69;8343473;28;19921;-48
2022/09/20 14:12:51;;;;;;;;;;;;;;;16.06;87.34;101355.72;8343491;28;19971;-47
2022/09/20 14:16:54;;;;;;;;;;;;;;;16.06;83.56;101350.28;8332699;28;20020;-47
2022/09/20 14:20:54;;;;;;;;;;;;;;;16.12;84.14;101351.50;8320495;28;19925;-47
2022/09/20 14:24:57;;;;;;;;;;;;;;;16.21;83.42;101359.63;8317546;28;20062;-48
2022/09/20 14:29:17;;;;;;;;;;;;;;;16.22;84.91;101349.59;8321267;28;19925;-47
2022/09/20 14:33:19;;;;;;;;;;;;;;;16.03;84.14;101349.72;8322240;28;19925;-47
2022/09/20 14:37:24;;;;;;;;;;;;;;;16.30;86.45;101344.19;8323419;28;20296;-49
2022/09/20 14:41:27;;;;;;;;;;;;;;;16.13;84.05;101345.06;8316180;28;19975;-47
2022/09/20 14:45:29;;;;;;;;;;;;;;;16.14;83.54;101346.78;8302028;28;20153;-49
2022/09/20 14:49:31;;;;;;;;;;;;;;;16.22;83.15;101336.78;8317958;28;20412;-47
2022/09/20 14:53:35;;;;;;;;;;;;;;;16.18;82.66;101332.66;8318545;28;19925;-47
2022/09/20 14:57:36;;;;;;;;;;;;;;;16.20;83.32;101335.22;8319599;28;20278;-48
2022/09/20 15:01:40;;;;;;;;;;;;;;;16.24;83.16;101325.69;8323545;28;19917;-47
2022/09/20 15:05:41;;;;;;;;;;;;;;;16.36;81.37;101324.44;8316492;28;19964;-47
2022/09/20 15:09:41;;;;;;;;;;;;;;;16.33;80.99;101316.56;8285629;28;19971;-47
2022/09/20 15:13:42;;;;;;;;;;;;;;;16.40;80.11;101320.38;8319997;28;19921;-47
2022/09/20 15:17:42;;;;;;;;;;;;;;;16.54;79.45;101311.66;8310982;28;19944;-47
2022/09/20 15:21:43;;;;;;;;;;;;;;;16.66;77.97;101318.56;8320397;28;19925;-47
2022/09/20 15:25:44;;;;;;;;;;;;;;;16.70;76.54;101318.09;8317358;28;19929;-49
2022/09/20 15:29:44;;;;;;;;;;;;;;;16.59;75.63;101314.78;8313212;28;20437;-46
2022/09/20 15:33:44;;;;;;;;;;;;;;;16.38;74.30;101312.34;8322753;28;19928;-47
2022/09/20 15:37:44;;;;;;;;;;;;;;;16.53;74.75;101315.41;8311013;28;19922;-48
2022/09/20 15:41:45;;;;;;;;;;;;;;;16.76;73.65;101316.59;8311749;28;19928;-47
2022/09/20 15:45:54;;;;;;;;;;;;;;;16.87;74.18;101310.88;8318968;28;19956;-47
2022/09/20 15:49:54;;;;;;;;;;;;;;;16.83;73.12;101323.09;8314965;28;19933;-47
2022/09/20 15:53:56;;;;;;;;;;;;;;;16.74;73.36;101313.19;8319977;28;20401;-49
2022/09/20 15:57:57;;;;;;;;;;;;;;;16.74;74.86;101319.47;8322421;28;19928;-47
2022/09/20 16:02:01;;;;;;;;;;;;;;;16.57;73.88;101320.41;8318233;28;19964;-47
2022/09/20 16:06:03;;;;;;;;;;;;;;;16.51;74.66;101325.63;8322500;28;19925;-47
2022/09/20 16:10:04;;;;;;;;;;;;;;;16.75;75.29;101325.81;8312507;28;19952;-47
2022/09/20 16:14:05;;;;;;;;;;;;;;;16.65;73.47;101319.59;8315296;28;19936;-46
2022/09/20 16:19:23;;;;;;;;;;;;;;;16.53;73.54;101332.63;8303989;28;19976;-46
2022/09/20 16:22:28;;;;;;;;;;;;;;;16.52;74.45;101338.25;8314830;28;20193;-47
2022/09/20 16:26:30;;;;;;;;;;;;;;;16.51;72.30;101339.28;8312996;28;21158;-48
2022/09/20 16:30:30;;;;;;;;;;;;;;;16.57;70.12;101336.78;8317419;28;19928;-50
2022/09/20 16:34:32;;;;;;;;;;;;;;;16.44;69.00;101343.66;8315695;28;20014;-46
2022/09/20 16:38:33;;;;;;;;;;;;;;;16.32;69.26;101337.56;8322981;28;20362;-47
2022/09/20 16:42:34;;;;;;;;;;;;;;;16.24;69.39;101342.06;8317831;28;20351;-46
2022/09/20 16:46:36;;;;;;;;;;;;;;;16.12;69.26;101344.19;8317169;28;19948;-48
2022/09/20 16:50:36;;;;;;;;;;;;;;;16.04;69.28;101351.44;8315477;28;20016;-50
2022/09/20 16:54:37;;;;;;;;;;;;;;;15.90;69.90;101349.25;8321699;28;19923;-46
2022/09/20 16:58:37;;;;;;;;;;;;;;;15.73;71.11;101348.22;8321164;28;20358;-47
2022/09/20 17:02:38;;;;;;;;;;;;;;;15.61;72.33;101350.28;8319933;28;20366;-46
2022/09/20 17:06:38;;;;;;;;;;;;;;;15.52;72.81;101359.38;8319091;28;19933;-48
2022/09/20 17:10:39;;;;;;;;;;;;;;;15.46;73.63;101357.25;8320732;28;19929;-49
2022/09/20 17:14:39;;;;;;;;;;;;;;;15.42;74.13;101357.72;8320612;28;19921;-46
2022/09/20 17:18:42;;;;;;;;;;;;;;;15.31;75.23;101366.91;8317702;28;19940;-47
2022/09/20 17:22:42;;;;;;;;;;;;;;;15.20;77.08;101371.69;8321027;28;19920;-46
2022/09/20 17:26:43;;;;;;;;;;;;;;;14.99;78.90;101373.78;8321462;28;19967;-46
2022/09/20 17:30:44;;;;;;;;;;;;;;;14.63;80.60;101374.56;8316131;28;19925;-46
2022/09/20 17:34:44;;;;;;;;;;;;;;;14.50;82.47;101374.03;8316882;28;19936;-47
2022/09/20 17:38:45;;;;;;;;;;;;;;;14.25;83.53;101370.03;8319275;28;19928;-47
2022/09/20 17:42:46;;;;;;;;;;;;;;;14.13;84.40;101378.44;8321827;28;19917;-47
2022/09/20 17:46:48;;;;;;;;;;;;;;;14.12;85.48;101379.44;8321568;28;19947;-46
2022/09/20 17:50:56;;;;;;;;;;;;;;;14.11;87.21;101392.19;8322558;28;19971;-47
2022/09/20 17:54:56;;;;;;;;;;;;;;;13.91;86.85;101390.44;8327686;28;19921;-47
2022/09/20 17:58:57;;;;;;;;;;;;;;;13.84;88.09;101389.28;8323580;28;19952;-47
2022/09/20 18:02:58;;;;;;;;;;;;;;;13.93;86.69;101399.31;8322157;28;20321;-47
2022/09/20 18:06:59;;;;;;;;;;;;;;;13.97;86.32;101400.78;8317191;28;20247;-48
2022/09/20 18:10:59;;;;;;;;;;;;;;;14.01;86.87;101412.19;8309493;28;19921;-47
2022/09/20 18:15:00;;;;;;;;;;;;;;;13.87;89.64;101410.75;8317383;28;19925;-47
2022/09/20 18:19:00;;;;;;;;;;;;;;;13.84;90.13;101416.47;8296010;28;20035;-47
2022/09/20 18:23:01;;;;;;;;;;;;;;;13.71;90.49;101426.72;8321653;28;19972;-48
2022/09/20 18:27:02;;;;;;;;;;;;;;;13.50;91.08;101425.94;8290394;28;19933;-48
2022/09/20 18:31:03;;;;;;;;;;;;;;;13.44;92.13;101426.47;8314728;28;19961;-47
2022/09/20 18:35:05;;;;;;;;;;;;;;;13.43;92.45;101435.63;8309354;28;19925;-47
2022/09/20 18:39:05;;;;;;;;;;;;;;;13.37;93.02;101444.34;8272349;28;20016;-48
2022/09/20 18:43:06;;;;;;;;;;;;;;;13.39;93.30;101437.75;8319946;28;19948;-46
2022/09/20 18:47:06;;;;;;;;;;;;;;;13.25;93.23;101434.53;8318492;28;20393;-50
2022/09/20 18:51:07;;;;;;;;;;;;;;;13.02;95.30;101449.31;8314953;28;20385;-47
2022/09/20 18:55:08;;;;;;;;;;;;;;;12.86;97.08;101443.41;8319787;28;20453;-47
2022/09/20 18:59:16;;;;;;;;;;;;;;;12.75;97.57;101446.22;8319270;28;20345;-47
2022/09/20 19:03:23;;;;;;;;;;;;;;;12.67;98.69;101454.13;8317792;28;19931;-47
2022/09/20 19:07:30;;;;;;;;;;;;;;;12.51;100.00;101467.28;8317558;28;20020;-48
2022/09/20 19:11:34;;;;;;;;;;;;;;;12.45;100.00;101468.69;8322759;28;19931;-48
2022/09/20 19:15:50;;;;;;;;;;;;;;;12.44;100.00;101474.25;8317342;28;19934;-47
2022/09/20 19:19:59;;;;;;;;;;;;;;;12.49;100.00;101477.41;8319326;28;19921;-47
2022/09/20 19:24:20;;;;;;;;;;;;;;;12.50;100.00;101484.56;8322651;28;19925;-47
2022/09/20 19:28:20;;;;;;;;;;;;;;;12.51;100.00;101475.44;8317165;28;20044;-46
2022/09/20 19:32:24;;;;;;;;;;;;;;;12.58;100.00;101479.34;8320660;28;20294;-47
2022/09/20 19:36:38;;;;;;;;;;;;;;;12.70;100.00;101476.47;8317622;28;20027;-48
2022/09/20 19:40:58;;;;;;;;;;;;;;;12.71;100.00;101488.16;8304455;28;20063;-47
2022/09/20 19:45:09;;;;;;;;;;;;;;;12.65;100.00;101491.38;8316295;28;20382;-47
2022/09/20 19:53:27;;;;;;;;;;;;;;;12.35;100.00;101500.25;8318926;27;19925;-48
2022/09/20 19:57:33;;;;;;;;;;;;;;;12.13;100.00;101491.34;8314414;28;19925;-46
2022/09/20 20:01:33;;;;;;;;;;;;;;;11.80;100.00;101500.34;8315846;28;20405;-46
2022/09/20 20:05:34;;;;;;;;;;;;;;;11.74;100.00;101490.03;8315011;28;20280;-46
2022/09/20 20:09:54;;;;;;;;;;;;;;;11.66;100.00;101509.63;8332948;28;20330;-47
2022/09/20 20:14:14;;;;;;;;;;;;;;;11.60;100.00;101504.69;8304083;28;19976;-46
2022/09/20 20:18:20;;;;;;;;;;;;;;;11.64;100.00;101506.19;8313052;28;19925;-46
2022/09/20 20:22:40;;;;;;;;;;;;;;;11.47;100.00;101512.03;8311251;28;20435;-47
2022/09/20 20:26:41;;;;;;;;;;;;;;;11.35;100.00;101518.41;8317602;28;19925;-48
2022/09/20 20:30:41;;;;;;;;;;;;;;;11.24;100.00;101521.13;8314847;28;19929;-47
2022/09/20 20:34:42;;;;;;;;;;;;;;;11.22;100.00;101514.97;8315178;28;20421;-48
2022/09/20 20:38:48;;;;;;;;;;;;;;;11.16;100.00;101526.25;8314128;28;19925;-50
2022/09/20 20:43:00;;;;;;;;;;;;;;;11.05;100.00;101528.97;8313363;28;20016;-47
2022/09/20 20:47:02;;;;;;;;;;;;;;;10.97;100.00;101534.09;8312158;28;20060;-50
2022/09/20 20:51:04;;;;;;;;;;;;;;;10.99;100.00;101534.84;8328157;28;19935;-49
2022/09/20 20:55:05;;;;;;;;;;;;;;;11.07;100.00;101542.38;8345033;28;19931;-49
2022/09/20 20:59:05;;;;;;;;;;;;;;;11.05;100.00;101539.78;8351230;28;19929;-48
2022/09/20 21:03:06;;;;;;;;;;;;;;;10.91;100.00;101548.09;8331947;28;20015;-47
2022/09/20 21:07:06;;;;;;;;;;;;;;;11.18;100.00;101548.66;8323853;28;19925;-48
2022/09/20 21:11:08;;;;;;;;;;;;;;;10.97;100.00;101552.16;8324783;28;19936;-47
2022/09/20 21:15:08;;;;;;;;;;;;;;;10.68;100.00;101551.69;8324283;28;20011;-47
2022/09/20 21:19:12;;;;;;;;;;;;;;;10.69;100.00;101548.00;8317200;28;19927;-48
2022/09/20 21:23:12;;;;;;;;;;;;;;;10.50;100.00;101558.50;8316676;28;19925;-49
2022/09/20 21:27:13;;;;;;;;;;;;;;;10.32;100.00;101549.03;8320970;28;19921;-47
2022/09/20 21:31:13;;;;;;;;;;;;;;;10.33;100.00;101566.09;8321761;28;19925;-47
2022/09/20 21:35:14;;;;;;;;;;;;;;;10.20;100.00;101570.69;8324252;28;19927;-48
2022/09/20 21:39:14;;;;;;;;;;;;;;;10.25;100.00;101569.41;8321682;28;19929;-47